Terminal Aerodrome Forecast
Issued by NWS Shreveport, LA

Home | Current Version | Previous Version | Text Only | Print | Product List | Glossary On
Versions: 1 2 3 4 5 6 7 8 9 10 11 12
000
FTUS44 KSHV 210500
TAFELD
TAF
KELD 210522Z 2106/2206 VRB03KT P6SM SCT070
     FM210900 VRB03KT P6SM BKN050 BKN120
     FM211600 20007KT P6SM BKN050 OVC100
     FM212000 20008KT P6SM VCTS BKN060CB BKN250
     FM220200 26007KT 5SM -TSRA BKN050CB OVC100=

USA.gov is the U.S. government's official web portal to all federal, state and local government web resources and services.